Terminal Aerodrome Forecast
Issued by NWS

Home | Current Version | Previous Version | Graphics & Text | Print | Product List | Glossary On
Versions: 1 2 3 4 5 6 7 8 9 10 11 12 13 14 15 16 17 18 19 20 21 22 23 24 25 26 27 28 29 30 31 32 33 34 35 36
000
FTUS45 KGGW 191928 AAA
TAFOLF
TAF AMD
KOLF 191928Z 1919/2018 07008KT 1SM BR OVC002
     FM192300 VRB03KT 2SM BR SCT002 BKN008
     FM200700 24005KT 1SM BR VCSH SCT001 OVC004
     FM201600 26008KT 5SM BR FEW015 SCT050=

USA.gov is the U.S. government's official web portal to all federal, state and local government web resources and services.